createdAt,value
2022-12-20T00:00:24.704Z,96.77
2022-12-20T00:02:51.062Z,96.61
2022-12-20T00:05:17.422Z,96.71
2022-12-20T00:07:43.749Z,96.34
2022-12-20T00:10:10.077Z,96.87
2022-12-20T00:15:08.026Z,97.01
2022-12-20T00:17:34.531Z,96.62
2022-12-20T00:20:01.021Z,96.38
2022-12-20T00:22:27.352Z,96.72
2022-12-20T00:24:53.689Z,96.53
2022-12-20T00:27:20.060Z,96.68
2022-12-20T00:29:46.391Z,96.82
2022-12-20T00:32:12.772Z,96.84
2022-12-20T00:34:39.291Z,97.15
2022-12-20T00:37:05.693Z,96.91
2022-12-20T00:39:34.131Z,96.83
2022-12-20T00:42:00.477Z,97.00
2022-12-20T00:44:28.590Z,96.69
2022-12-20T00:46:54.976Z,96.30
2022-12-20T00:49:21.332Z,96.47
2022-12-20T00:51:47.661Z,96.66
2022-12-20T00:54:14.007Z,96.42
2022-12-20T00:56:40.341Z,96.48
2022-12-20T00:59:06.711Z,96.43
2022-12-20T01:01:33.301Z,96.72
2022-12-20T01:03:59.752Z,96.89
2022-12-20T01:06:26.208Z,97.03
2022-12-20T01:08:52.571Z,96.93
2022-12-20T01:11:18.901Z,97.01
2022-12-20T01:13:45.252Z,97.09
2022-12-20T01:16:11.674Z,97.31
2022-12-20T01:18:38.059Z,97.04
2022-12-20T01:21:04.394Z,96.60
2022-12-20T01:23:30.749Z,96.64
2022-12-20T01:25:57.081Z,96.51
2022-12-20T01:28:23.429Z,96.46
2022-12-20T01:30:49.751Z,96.56
2022-12-20T01:33:16.081Z,96.75
2022-12-20T01:35:42.395Z,96.41
2022-12-20T01:38:08.734Z,96.55
2022-12-20T01:40:35.073Z,97.05
2022-12-20T01:43:01.406Z,96.48
2022-12-20T01:45:27.769Z,96.38
2022-12-20T01:47:54.101Z,96.89
2022-12-20T01:50:20.485Z,96.86
2022-12-20T01:52:46.947Z,96.92
2022-12-20T01:55:13.281Z,97.21
2022-12-20T01:57:39.690Z,97.25
2022-12-20T02:00:06.028Z,97.14
2022-12-20T02:02:32.507Z,97.41
2022-12-20T02:04:58.937Z,97.38
2022-12-20T02:07:25.264Z,97.28
2022-12-20T02:09:51.613Z,97.13
2022-12-20T02:12:17.947Z,97.02
2022-12-20T02:14:44.325Z,97.23
2022-12-20T02:17:11.104Z,97.04
2022-12-20T02:19:37.487Z,97.07
2022-12-20T02:22:03.876Z,97.14
2022-12-20T02:24:30.217Z,96.70
2022-12-20T02:26:56.827Z,96.39
2022-12-20T02:29:23.158Z,96.64
2022-12-20T02:31:49.567Z,96.55
2022-12-20T02:34:16.002Z,96.54
2022-12-20T02:36:42.461Z,96.60
2022-12-20T02:39:08.783Z,96.37
2022-12-20T02:41:35.270Z,96.18
2022-12-20T02:44:20.387Z,95.87
2022-12-20T02:46:46.737Z,96.01
2022-12-20T02:49:13.095Z,95.79
2022-12-20T02:51:39.455Z,95.51
2022-12-20T02:54:05.788Z,95.75
2022-12-20T02:56:32.120Z,96.06
2022-12-20T02:58:58.436Z,96.21
2022-12-20T03:01:24.939Z,95.92
2022-12-20T03:03:51.456Z,96.54
2022-12-20T03:06:17.851Z,96.27
2022-12-20T03:08:44.237Z,96.33
2022-12-20T03:11:10.723Z,96.38
2022-12-20T03:13:37.040Z,96.36
2022-12-20T03:16:03.413Z,96.37
2022-12-20T03:18:29.743Z,95.91
2022-12-20T03:20:56.108Z,96.43
2022-12-20T03:23:22.447Z,96.18
2022-12-20T03:25:48.808Z,96.48
2022-12-20T03:28:15.207Z,95.97
2022-12-20T03:30:41.564Z,95.90
2022-12-20T03:33:07.892Z,95.43
2022-12-20T03:35:34.222Z,95.60
2022-12-20T03:38:00.555Z,95.45
2022-12-20T03:40:26.912Z,95.30
2022-12-20T03:42:53.279Z,95.31
2022-12-20T03:45:19.615Z,95.58
2022-12-20T03:47:45.972Z,95.43
2022-12-20T03:50:12.353Z,95.26
2022-12-20T03:52:38.689Z,95.10
2022-12-20T03:55:05.047Z,94.76
2022-12-20T03:57:31.378Z,95.05
2022-12-20T03:59:57.730Z,94.95
2022-12-20T04:02:24.220Z,95.32
2022-12-20T04:04:50.649Z,95.27
2022-12-20T04:07:16.982Z,95.12
2022-12-20T04:09:43.309Z,95.38
2022-12-20T04:12:09.626Z,95.06
2022-12-20T04:14:37.519Z,95.24
2022-12-20T04:17:03.880Z,95.05
2022-12-20T04:19:30.189Z,95.17
2022-12-20T04:22:04.811Z,95.38
2022-12-20T04:24:32.203Z,95.17
2022-12-20T04:26:58.535Z,94.92
2022-12-20T04:29:24.947Z,95.01
2022-12-20T04:31:51.365Z,95.43
2022-12-20T04:34:17.757Z,95.39
2022-12-20T04:36:44.094Z,95.77
2022-12-20T04:39:10.442Z,96.17
2022-12-20T04:41:36.837Z,95.97
2022-12-20T04:44:03.155Z,96.56
2022-12-20T04:46:29.586Z,97.13
2022-12-20T04:48:58.405Z,97.65
2022-12-20T04:51:25.859Z,97.82
2022-12-20T04:53:52.202Z,98.34
2022-12-20T04:56:18.555Z,98.19
2022-12-20T04:58:44.927Z,98.36
2022-12-20T05:01:11.258Z,98.10
2022-12-20T05:03:37.803Z,98.46
2022-12-20T05:06:04.195Z,98.49
2022-12-20T05:08:30.704Z,98.83
2022-12-20T05:10:57.089Z,98.77
2022-12-20T05:13:23.459Z,98.53
2022-12-20T05:15:50.451Z,99.32
2022-12-20T05:18:16.848Z,98.89
2022-12-20T05:20:43.173Z,98.94
2022-12-20T05:23:28.294Z,99.08
2022-12-20T05:26:13.232Z,98.95
2022-12-20T05:28:39.641Z,99.10
2022-12-20T05:31:06.027Z,98.93
2022-12-20T05:33:34.362Z,98.96
2022-12-20T05:36:00.855Z,99.02
2022-12-20T05:38:27.197Z,99.05
2022-12-20T05:40:53.595Z,99.29
2022-12-20T05:43:20.079Z,99.62
2022-12-20T05:45:46.605Z,99.81
2022-12-20T05:48:12.916Z,99.72
2022-12-20T05:50:39.245Z,99.90
2022-12-20T05:53:11.335Z,99.80
2022-12-20T05:55:40.510Z,99.28
2022-12-20T05:58:07.066Z,99.87
2022-12-20T06:00:33.685Z,99.97
2022-12-20T06:03:00.198Z,99.69
2022-12-20T06:05:26.719Z,99.51
2022-12-20T06:07:53.091Z,99.10
2022-12-20T06:10:19.488Z,98.93
2022-12-20T06:12:45.814Z,99.11
2022-12-20T06:15:13.471Z,98.78
2022-12-20T06:17:39.798Z,98.73
2022-12-20T06:20:06.153Z,98.51
2022-12-20T06:22:32.578Z,98.44
2022-12-20T06:24:58.917Z,98.44
2022-12-20T06:27:25.289Z,98.75
2022-12-20T06:29:54.511Z,98.33
2022-12-20T06:32:21.023Z,98.01
2022-12-20T06:34:47.381Z,97.78
2022-12-20T06:37:13.721Z,97.64
2022-12-20T06:39:40.075Z,97.85
2022-12-20T06:42:07.152Z,97.87
2022-12-20T06:44:33.515Z,97.73
2022-12-20T06:46:59.876Z,97.97
2022-12-20T06:49:26.286Z,97.93
2022-12-20T06:51:52.675Z,97.93
2022-12-20T06:54:19.013Z,97.78
2022-12-20T06:56:45.353Z,97.90
2022-12-20T06:59:11.700Z,97.77
2022-12-20T07:01:38.176Z,97.82
2022-12-20T07:04:04.540Z,97.56
2022-12-20T07:06:30.863Z,97.30
2022-12-20T07:08:57.273Z,97.25
2022-12-20T07:11:23.642Z,97.34
2022-12-20T07:13:52.480Z,97.17
2022-12-20T07:16:18.840Z,97.07
2022-12-20T07:18:45.541Z,96.84
2022-12-20T07:21:14.202Z,96.22
2022-12-20T07:23:40.543Z,96.25
2022-12-20T07:26:06.910Z,95.98
2022-12-20T07:28:33.405Z,95.52
2022-12-20T07:30:59.731Z,95.40
2022-12-20T07:33:26.073Z,95.08
2022-12-20T07:35:54.678Z,94.96
2022-12-20T07:38:21.429Z,94.31
2022-12-20T07:40:47.771Z,94.15
2022-12-20T07:43:14.116Z,93.53
2022-12-20T07:45:40.512Z,93.65
2022-12-20T07:48:11.328Z,92.72
2022-12-20T07:50:41.633Z,92.78
2022-12-20T07:53:07.978Z,92.52
2022-12-20T07:55:34.637Z,91.95
2022-12-20T07:58:01.024Z,92.05
2022-12-20T08:00:27.438Z,91.40
2022-12-20T08:02:54.237Z,91.78
2022-12-20T08:05:20.810Z,91.62
2022-12-20T08:07:47.116Z,91.78
2022-12-20T08:10:13.465Z,92.02
2022-12-20T08:12:39.812Z,91.56
2022-12-20T08:15:06.167Z,91.18
2022-12-20T08:17:32.491Z,91.34
2022-12-20T08:20:00.615Z,90.89
2022-12-20T08:22:27.012Z,90.76
2022-12-20T08:24:53.324Z,90.54
2022-12-20T08:27:19.678Z,90.45
2022-12-20T08:29:46.052Z,90.41
2022-12-20T08:32:14.259Z,90.36
2022-12-20T08:34:40.591Z,89.83
2022-12-20T08:37:14.377Z,90.05
2022-12-20T08:39:41.216Z,90.12
2022-12-20T08:42:07.709Z,89.64
2022-12-20T08:44:34.102Z,89.56
2022-12-20T08:47:00.485Z,89.46
2022-12-20T08:49:26.814Z,89.52
2022-12-20T08:51:53.172Z,89.16
2022-12-20T08:54:19.531Z,88.53
2022-12-20T08:56:45.898Z,89.03
2022-12-20T08:59:12.326Z,88.48
2022-12-20T09:01:38.936Z,88.42
2022-12-20T09:04:05.389Z,87.93
2022-12-20T09:06:31.840Z,88.23
2022-12-20T09:09:00.303Z,88.37
2022-12-20T09:11:26.695Z,87.95
2022-12-20T09:13:53.059Z,86.71
2022-12-20T09:16:19.460Z,86.06
2022-12-20T09:18:45.844Z,85.71
2022-12-20T09:21:12.304Z,86.10
2022-12-20T09:23:38.635Z,86.85
2022-12-20T09:26:04.978Z,86.29
2022-12-20T09:28:31.313Z,85.72
2022-12-20T09:30:57.686Z,85.55
2022-12-20T09:33:24.044Z,86.12
2022-12-20T09:35:50.519Z,85.54
2022-12-20T09:38:16.888Z,84.58
2022-12-20T09:40:43.229Z,84.57
2022-12-20T09:43:09.556Z,83.98
2022-12-20T09:45:35.877Z,84.33
2022-12-20T09:48:02.234Z,83.75
2022-12-20T09:50:28.552Z,84.00
2022-12-20T09:52:54.933Z,84.45
2022-12-20T09:55:22.717Z,84.51
2022-12-20T09:57:49.157Z,84.29
2022-12-20T10:00:15.514Z,84.07
2022-12-20T10:03:00.228Z,84.40
2022-12-20T10:05:28.249Z,83.96
2022-12-20T10:07:54.963Z,83.63
2022-12-20T10:10:21.310Z,83.65
2022-12-20T10:12:47.725Z,83.83
2022-12-20T10:15:14.086Z,83.60
2022-12-20T10:17:40.429Z,84.54
2022-12-20T10:20:06.770Z,85.11
2022-12-20T10:22:33.085Z,84.99
2022-12-20T10:25:00.062Z,85.03
2022-12-20T10:27:26.392Z,85.33
2022-12-20T10:29:52.735Z,85.41
2022-12-20T10:32:19.130Z,84.85
2022-12-20T10:34:48.608Z,85.62
2022-12-20T10:37:16.195Z,85.93
2022-12-20T10:39:42.751Z,86.06
2022-12-20T10:42:09.092Z,85.73
2022-12-20T10:44:35.475Z,85.78
2022-12-20T10:47:02.097Z,86.08
2022-12-20T10:49:28.779Z,86.62
2022-12-20T10:51:55.768Z,86.10
2022-12-20T10:54:22.120Z,86.22
2022-12-20T10:56:48.431Z,86.51
2022-12-20T10:59:14.818Z,86.33
2022-12-20T11:01:42.476Z,86.76
2022-12-20T11:04:08.943Z,86.51
2022-12-20T11:06:35.887Z,86.50
2022-12-20T11:09:02.223Z,86.36
2022-12-20T11:11:28.765Z,86.75
2022-12-20T11:13:55.296Z,87.01
2022-12-20T11:16:21.659Z,87.26
2022-12-20T11:18:48.126Z,86.34
2022-12-20T11:21:18.512Z,86.29
2022-12-20T11:23:48.486Z,85.81
2022-12-20T11:26:14.827Z,85.03
2022-12-20T11:28:41.316Z,83.78
2022-12-20T11:31:07.683Z,83.16
2022-12-20T11:33:34.033Z,82.85
2022-12-20T11:36:00.354Z,82.57
2022-12-20T11:38:26.728Z,82.31
2022-12-20T11:40:53.070Z,83.02
2022-12-20T11:43:19.682Z,82.95
2022-12-20T11:45:46.049Z,84.31
2022-12-20T11:48:12.398Z,84.87
2022-12-20T11:50:38.727Z,84.95
2022-12-20T11:53:05.088Z,85.46
2022-12-20T11:55:31.401Z,84.81
2022-12-20T12:00:44.265Z,85.07
2022-12-20T12:03:10.705Z,85.41
2022-12-20T12:05:37.126Z,85.13
2022-12-20T12:08:03.501Z,85.02
2022-12-20T12:10:30.150Z,84.78
2022-12-20T12:12:56.507Z,84.05
2022-12-20T12:15:22.834Z,83.92
2022-12-20T12:17:49.199Z,83.16
2022-12-20T12:20:15.536Z,83.96
2022-12-20T12:22:41.871Z,83.60
2022-12-20T12:25:08.200Z,84.67
2022-12-20T12:27:35.216Z,84.59
2022-12-20T12:30:01.605Z,85.29
2022-12-20T12:32:28.028Z,85.67
2022-12-20T12:34:54.360Z,85.70
2022-12-20T12:37:20.695Z,85.50
2022-12-20T12:39:47.150Z,85.85
2022-12-20T12:42:13.505Z,85.92
2022-12-20T12:44:39.823Z,85.91
2022-12-20T12:47:06.132Z,85.92
2022-12-20T12:49:32.471Z,86.59
2022-12-20T12:51:58.899Z,86.81
2022-12-20T12:54:25.720Z,86.81
2022-12-20T12:56:52.091Z,86.61
2022-12-20T12:59:18.444Z,87.33
2022-12-20T13:01:44.870Z,87.39
2022-12-20T13:04:11.370Z,87.46
2022-12-20T13:06:37.737Z,87.22
2022-12-20T13:09:04.062Z,87.14
2022-12-20T13:11:30.450Z,86.83
2022-12-20T13:13:56.774Z,86.60
2022-12-20T13:16:36.019Z,86.35
2022-12-20T13:19:09.574Z,86.24
2022-12-20T13:21:36.087Z,86.27
2022-12-20T13:24:03.360Z,86.11
2022-12-20T13:26:29.693Z,85.76
2022-12-20T13:28:56.007Z,85.88
2022-12-20T13:31:22.456Z,85.92
2022-12-20T13:33:48.862Z,86.20
2022-12-20T13:36:15.165Z,86.17
2022-12-20T13:38:41.544Z,86.57
2022-12-20T13:41:07.873Z,86.74
2022-12-20T13:43:34.195Z,86.98
2022-12-20T13:46:00.587Z,87.05
2022-12-20T13:48:26.944Z,86.91
2022-12-20T13:50:56.652Z,86.78
2022-12-20T13:53:22.985Z,86.06
2022-12-20T13:55:50.290Z,86.73
2022-12-20T13:58:17.230Z,86.38
2022-12-20T14:00:43.533Z,86.16
2022-12-20T14:03:10.014Z,86.93
2022-12-20T14:05:36.436Z,86.47
2022-12-20T14:08:02.766Z,87.01
2022-12-20T14:10:29.165Z,86.94
2022-12-20T14:12:55.568Z,86.92
2022-12-20T14:15:22.273Z,87.18
2022-12-20T14:17:48.603Z,87.36
2022-12-20T14:20:18.001Z,87.61
2022-12-20T14:22:44.805Z,87.52
2022-12-20T14:25:11.124Z,87.93
2022-12-20T14:27:37.810Z,87.56
2022-12-20T14:30:04.227Z,87.76
2022-12-20T14:32:30.578Z,87.65
2022-12-20T14:34:56.900Z,87.42
2022-12-20T14:37:23.224Z,87.60
2022-12-20T14:39:49.708Z,87.31
2022-12-20T14:42:16.033Z,87.43
2022-12-20T14:44:42.559Z,87.57
2022-12-20T14:47:08.873Z,87.68
2022-12-20T14:49:35.251Z,87.62
2022-12-20T14:52:01.562Z,88.22
2022-12-20T14:55:05.681Z,88.22
2022-12-20T14:57:14.151Z,88.19
2022-12-20T14:59:40.459Z,88.24
2022-12-20T15:02:06.886Z,88.79
2022-12-20T15:04:33.343Z,88.76
2022-12-20T15:06:59.654Z,88.76
2022-12-20T15:09:26.001Z,88.61
2022-12-20T15:11:52.350Z,88.71
2022-12-20T15:14:18.661Z,88.66
2022-12-20T15:16:45.042Z,88.53
2022-12-20T15:19:11.432Z,88.43
2022-12-20T15:21:38.571Z,88.57
2022-12-20T15:24:07.984Z,88.37
2022-12-20T15:26:34.340Z,88.11
2022-12-20T15:29:00.627Z,88.54
2022-12-20T15:31:33.079Z,88.45
2022-12-20T15:34:02.386Z,88.66
2022-12-20T15:36:28.860Z,88.90
2022-12-20T15:39:12.168Z,88.59
2022-12-20T15:41:39.204Z,88.60
2022-12-20T15:44:05.506Z,88.37
2022-12-20T15:46:31.872Z,88.33
2022-12-20T15:48:58.289Z,88.08
2022-12-20T15:51:24.647Z,88.34
2022-12-20T15:53:50.973Z,88.01
2022-12-20T15:56:17.709Z,88.35
2022-12-20T15:58:44.026Z,88.16
2022-12-20T16:01:10.484Z,87.89
2022-12-20T16:03:37.060Z,87.65
2022-12-20T16:06:03.653Z,87.89
2022-12-20T16:08:30.896Z,88.20
2022-12-20T16:10:57.261Z,87.98
2022-12-20T16:13:23.732Z,88.11
2022-12-20T16:15:50.479Z,87.97
2022-12-20T16:18:16.831Z,88.15
2022-12-20T16:20:43.206Z,88.09
2022-12-20T16:23:09.516Z,87.93
2022-12-20T16:25:35.906Z,88.37
2022-12-20T16:28:02.263Z,88.18
2022-12-20T16:30:28.603Z,88.33
2022-12-20T16:32:54.978Z,88.36
2022-12-20T16:35:21.298Z,88.43
2022-12-20T16:37:48.572Z,88.77
2022-12-20T16:40:17.903Z,88.77
2022-12-20T16:42:44.288Z,89.13
2022-12-20T16:45:11.174Z,87.97
2022-12-20T16:47:37.493Z,86.30
2022-12-20T16:50:03.828Z,85.85
2022-12-20T16:52:30.684Z,85.92
2022-12-20T16:54:57.041Z,85.27
2022-12-20T16:57:23.379Z,85.36
2022-12-20T16:59:49.753Z,85.33
2022-12-20T17:02:16.522Z,84.94
2022-12-20T17:04:43.034Z,84.76
2022-12-20T17:07:09.355Z,84.61
2022-12-20T17:12:19.568Z,84.23
2022-12-20T17:14:46.419Z,85.18
2022-12-20T17:17:12.758Z,85.30
2022-12-20T17:19:39.523Z,85.71
2022-12-20T17:24:49.889Z,85.95
2022-12-20T17:27:16.391Z,87.20
2022-12-20T17:29:42.775Z,88.08
2022-12-20T17:32:09.301Z,87.60
2022-12-20T17:34:36.613Z,87.70
2022-12-20T17:37:02.972Z,87.66
2022-12-20T17:39:29.306Z,87.76
2022-12-20T17:41:55.669Z,87.39
2022-12-20T17:44:22.046Z,87.77
2022-12-20T17:46:48.415Z,87.57
2022-12-20T17:49:14.777Z,88.15
2022-12-20T17:51:41.174Z,87.82
2022-12-20T17:54:07.528Z,88.06
2022-12-20T17:56:33.834Z,88.09
2022-12-20T17:59:00.161Z,87.70
2022-12-20T18:01:26.702Z,87.85
2022-12-20T18:04:03.700Z,87.80
2022-12-20T18:06:31.277Z,87.95
2022-12-20T18:08:57.643Z,88.01
2022-12-20T18:11:24.419Z,88.04
2022-12-20T18:13:50.729Z,87.84
2022-12-20T18:16:17.075Z,87.74
2022-12-20T18:18:43.402Z,86.62
2022-12-20T18:21:09.756Z,86.33
2022-12-20T18:23:36.152Z,85.49
2022-12-20T18:26:02.511Z,84.94
2022-12-20T18:28:28.823Z,84.61
2022-12-20T18:30:55.177Z,83.60
2022-12-20T18:33:21.494Z,84.03
2022-12-20T18:35:47.809Z,83.96
2022-12-20T18:38:16.498Z,84.32
2022-12-20T18:40:42.998Z,83.33
2022-12-20T18:43:09.306Z,84.00
2022-12-20T18:45:35.703Z,84.66
2022-12-20T18:48:02.292Z,84.29
2022-12-20T18:50:28.613Z,84.45
2022-12-20T18:53:00.982Z,83.77
2022-12-20T18:55:27.742Z,83.89
2022-12-20T18:57:54.082Z,84.66
2022-12-20T19:00:20.554Z,84.28
2022-12-20T19:02:46.995Z,83.87
2022-12-20T19:05:13.406Z,84.17
2022-12-20T19:07:39.721Z,84.08
2022-12-20T19:10:06.039Z,83.99
2022-12-20T19:12:32.387Z,83.78
2022-12-20T19:14:58.695Z,83.23
2022-12-20T19:17:25.063Z,83.48
2022-12-20T19:19:51.385Z,83.51
2022-12-20T19:22:17.682Z,83.70
2022-12-20T19:24:44.129Z,83.98
2022-12-20T19:27:10.687Z,84.19
2022-12-20T19:29:37.006Z,83.26
2022-12-20T19:32:03.341Z,83.73
2022-12-20T19:34:29.785Z,83.62
2022-12-20T19:36:56.101Z,83.01
2022-12-20T19:39:23.490Z,83.29
2022-12-20T19:42:21.386Z,83.60
2022-12-20T19:44:36.227Z,83.48
2022-12-20T19:47:05.900Z,83.96
2022-12-20T19:49:32.478Z,83.72
2022-12-20T19:51:58.878Z,84.29
2022-12-20T19:54:25.249Z,84.92
2022-12-20T19:56:51.553Z,85.01
2022-12-20T19:59:18.014Z,84.77
2022-12-20T20:01:44.386Z,84.88
2022-12-20T20:04:10.879Z,84.95
2022-12-20T20:06:37.251Z,85.37
2022-12-20T20:09:03.617Z,85.40
2022-12-20T20:11:29.928Z,85.15
2022-12-20T20:13:56.258Z,85.31
2022-12-20T20:16:23.301Z,85.28
2022-12-20T20:18:49.823Z,84.67
2022-12-20T20:21:17.979Z,85.33
2022-12-20T20:23:44.295Z,85.38
2022-12-20T20:26:10.962Z,85.08
2022-12-20T20:28:44.462Z,85.54
2022-12-20T20:31:11.948Z,85.72
2022-12-20T20:33:38.430Z,85.25
2022-12-20T20:36:04.789Z,84.74
2022-12-20T20:38:31.118Z,85.22
2022-12-20T20:40:57.425Z,85.26
2022-12-20T20:43:23.751Z,85.16
2022-12-20T20:45:50.143Z,85.06
2022-12-20T20:48:16.521Z,85.10
2022-12-20T20:50:42.862Z,85.57
2022-12-20T20:53:09.218Z,85.69
2022-12-20T20:55:35.607Z,85.74
2022-12-20T20:58:01.979Z,86.24
2022-12-20T21:00:29.636Z,86.06
2022-12-20T21:02:56.565Z,85.45
2022-12-20T21:08:10.317Z,86.41
2022-12-20T21:10:36.888Z,86.03
2022-12-20T21:13:03.736Z,86.39
2022-12-20T21:15:30.098Z,86.18
2022-12-20T21:17:56.502Z,85.91
2022-12-20T21:20:26.320Z,86.12
2022-12-20T21:22:52.985Z,85.53
2022-12-20T21:25:19.339Z,85.94
2022-12-20T21:27:45.654Z,86.25
2022-12-20T21:30:12.037Z,86.22
2022-12-20T21:32:38.393Z,85.96
2022-12-20T21:35:04.740Z,85.54
2022-12-20T21:37:31.225Z,85.78
2022-12-20T21:39:57.573Z,86.16
2022-12-20T21:42:23.891Z,85.97
2022-12-20T21:44:50.225Z,86.04
2022-12-20T21:47:16.529Z,85.71
2022-12-20T21:49:42.923Z,85.83
2022-12-20T21:52:09.247Z,86.12
2022-12-20T21:54:35.588Z,85.97
2022-12-20T21:57:01.926Z,85.87
2022-12-20T21:59:28.303Z,85.79
2022-12-20T22:01:54.822Z,85.89
2022-12-20T22:04:21.383Z,85.96
2022-12-20T22:06:47.692Z,85.91
2022-12-20T22:09:14.015Z,85.57
2022-12-20T22:11:40.468Z,85.51
2022-12-20T22:14:06.836Z,85.80
2022-12-20T22:16:34.907Z,85.57
2022-12-20T22:19:01.468Z,85.88
2022-12-20T22:21:27.857Z,85.61
2022-12-20T22:23:54.191Z,85.29
2022-12-20T22:26:20.501Z,85.80
2022-12-20T22:28:49.960Z,86.71
2022-12-20T22:31:16.424Z,86.66
2022-12-20T22:33:42.788Z,86.81
2022-12-20T22:36:09.109Z,86.32
2022-12-20T22:38:35.438Z,86.67
2022-12-20T22:41:01.959Z,86.68
2022-12-20T22:43:28.301Z,86.59
2022-12-20T22:45:54.647Z,86.73
2022-12-20T22:48:21.120Z,86.54
2022-12-20T22:50:47.424Z,86.65
2022-12-20T22:53:13.745Z,86.67
2022-12-20T22:55:40.064Z,86.68
2022-12-20T22:58:06.386Z,86.87
2022-12-20T23:00:33.971Z,86.22
2022-12-20T23:03:00.552Z,86.05
2022-12-20T23:05:27.074Z,86.05
2022-12-20T23:07:53.396Z,85.86
2022-12-20T23:10:38.481Z,86.20
2022-12-20T23:13:23.604Z,86.23
2022-12-20T23:15:49.929Z,86.15
2022-12-20T23:18:16.317Z,86.21
2022-12-20T23:21:01.464Z,86.43
2022-12-20T23:23:27.790Z,85.94
2022-12-20T23:25:54.114Z,85.95
2022-12-20T23:28:20.471Z,86.11
2022-12-20T23:30:46.785Z,85.61
2022-12-20T23:33:13.217Z,85.82
2022-12-20T23:35:39.868Z,86.37
2022-12-20T23:38:06.261Z,86.28
2022-12-20T23:40:32.619Z,86.35
2022-12-20T23:42:58.936Z,86.41
2022-12-20T23:45:25.252Z,86.77
2022-12-20T23:47:51.559Z,86.44
2022-12-20T23:50:17.936Z,86.50
2022-12-20T23:52:45.517Z,86.85
2022-12-20T23:55:12.126Z,86.44
2022-12-20T23:57:38.445Z,86.31
